Brighton, Vermont
Current Conditions -  °F | °C
As of 8:35 AM on Saturday 25 Oct 2014 (Local Time) from KCDA Reporting Station
Haze Haze  
Wind Chill: 31°   Ceiling: Unl
Heat Index: 31°   Visibility: 2.5mi
Dew Point: 30°   Wind: 0mph
Humidity: 94%   Direction: NA
Pressure: 29.76"   Gusts: NA
Location:  44.7725°N, 71.8101°W
Report Text: KCDA 251235Z AUTO 00000KT 2 1/2SM BR CLR 00/M01 A2976 RMK AO2 T10041013
Loading
Personal Weather Stations






























Interactive Weather Map
Tropical Storm Tracking
New forecast layout! Learn more

10-Day Weather Forecast

Advertisements
Track Severe Weather on mobile